createdAt,value
2018-02-23T00:00:34.810Z,-3.90
2018-02-23T00:03:02.297Z,-3.90
2018-02-23T00:05:29.796Z,-3.90
2018-02-23T00:07:57.301Z,-3.90
2018-02-23T00:10:25.551Z,-4.00
2018-02-23T00:12:53.133Z,-4.00
2018-02-23T00:15:21.398Z,-3.90
2018-02-23T00:17:48.883Z,-3.90
2018-02-23T00:20:16.383Z,-3.90
2018-02-23T00:22:43.890Z,-4.00
2018-02-23T00:25:12.140Z,-4.00
2018-02-23T00:27:39.638Z,-4.10
2018-02-23T00:30:07.133Z,-4.10
2018-02-23T00:32:34.621Z,-4.10
2018-02-23T00:35:02.119Z,-4.10
2018-02-23T00:37:29.606Z,-4.10
2018-02-23T00:39:57.084Z,-4.10
2018-02-23T00:42:24.600Z,-4.10
2018-02-23T00:44:52.082Z,-4.10
2018-02-23T00:47:19.589Z,-4.10
2018-02-23T00:49:47.846Z,-4.20
2018-02-23T00:52:15.333Z,-4.20
2018-02-23T00:54:43.585Z,-4.30
2018-02-23T00:57:11.088Z,-4.30
2018-02-23T00:59:38.620Z,-4.20
2018-02-23T01:02:06.887Z,-4.30
2018-02-23T01:04:35.163Z,-4.30
2018-02-23T01:07:03.433Z,-4.30
2018-02-23T01:09:31.769Z,-4.30
2018-02-23T01:11:59.263Z,-4.40
2018-02-23T01:14:26.755Z,-4.40
2018-02-23T01:16:54.335Z,-4.40
2018-02-23T01:19:21.835Z,-4.40
2018-02-23T01:21:49.329Z,-4.30
2018-02-23T01:24:17.595Z,-4.20
2018-02-23T01:26:45.859Z,-4.20
2018-02-23T01:29:14.115Z,-4.20
2018-02-23T01:31:41.599Z,-4.20
2018-02-23T01:34:09.867Z,-4.20
2018-02-23T01:36:37.446Z,-4.20
2018-02-23T01:39:05.702Z,-4.30
2018-02-23T01:41:33.209Z,-4.30
2018-02-23T01:44:00.702Z,-4.20
2018-02-23T01:46:28.276Z,-4.20
2018-02-23T01:48:55.842Z,-4.20
2018-02-23T01:51:24.104Z,-4.20
2018-02-23T01:53:51.608Z,-4.20
2018-02-23T01:56:19.106Z,-4.20
2018-02-23T01:58:46.584Z,-4.20
2018-02-23T02:01:14.168Z,-4.20
2018-02-23T02:03:42.444Z,-4.20
2018-02-23T02:06:10.697Z,-4.20
2018-02-23T02:08:38.186Z,-4.30
2018-02-23T02:11:06.445Z,-4.20
2018-02-23T02:13:33.933Z,-4.30
2018-02-23T02:16:01.415Z,-4.20
2018-02-23T02:18:28.931Z,-4.30
2018-02-23T02:20:57.197Z,-4.30
2018-02-23T02:23:25.491Z,-4.30
2018-02-23T02:25:53.758Z,-4.30
2018-02-23T02:28:22.036Z,-4.30
2018-02-23T02:30:50.303Z,-4.30
2018-02-23T02:33:18.558Z,-4.30
2018-02-23T02:35:46.052Z,-4.30
2018-02-23T02:38:14.302Z,-4.30
2018-02-23T02:40:41.805Z,-4.30
2018-02-23T02:43:09.288Z,-4.30
2018-02-23T02:45:36.822Z,-4.30
2018-02-23T02:48:04.318Z,-4.30
2018-02-23T02:50:31.806Z,-4.30
2018-02-23T02:52:59.384Z,-4.40
2018-02-23T02:55:27.655Z,-4.30
2018-02-23T02:57:55.902Z,-4.40
2018-02-23T03:00:23.386Z,-4.40
2018-02-23T03:02:51.646Z,-4.40
2018-02-23T03:05:19.130Z,-4.40
2018-02-23T03:07:47.398Z,-4.40
2018-02-23T03:10:15.697Z,-4.40
2018-02-23T03:12:43.188Z,-4.40
2018-02-23T03:15:10.689Z,-4.30
2018-02-23T03:17:38.949Z,-4.40
2018-02-23T03:20:06.434Z,-4.40
2018-02-23T03:22:34.711Z,-4.40
2018-02-23T03:25:02.968Z,-4.50
2018-02-23T03:27:30.457Z,-4.50
2018-02-23T03:29:57.939Z,-4.50
2018-02-23T03:32:25.460Z,-4.50
2018-02-23T03:34:53.713Z,-4.60
2018-02-23T03:37:21.200Z,-4.70
2018-02-23T03:39:49.566Z,-4.70
2018-02-23T03:42:17.847Z,-4.70
2018-02-23T03:44:46.122Z,-4.70
2018-02-23T03:47:14.649Z,-4.70
2018-02-23T03:49:42.131Z,-4.70
2018-02-23T03:52:09.611Z,-4.70
2018-02-23T03:54:37.106Z,-4.70
2018-02-23T03:57:04.644Z,-4.70
2018-02-23T03:59:32.910Z,-4.60
2018-02-23T04:02:00.454Z,-4.70
2018-02-23T04:04:28.060Z,-4.60
2018-02-23T04:06:56.369Z,-4.60
2018-02-23T04:09:23.871Z,-4.60
2018-02-23T04:11:52.126Z,-4.60
2018-02-23T04:14:19.642Z,-4.60
2018-02-23T04:16:47.137Z,-4.60
2018-02-23T04:19:14.620Z,-4.60
2018-02-23T04:21:42.910Z,-4.50
2018-02-23T04:24:11.457Z,-4.40
2018-02-23T04:26:38.959Z,-4.50
2018-02-23T04:29:06.443Z,-4.40
2018-02-23T04:31:33.941Z,-4.20
2018-02-23T04:34:01.485Z,-4.10
2018-02-23T04:36:28.974Z,-4.00
2018-02-23T04:38:57.249Z,-3.80
2018-02-23T04:41:25.511Z,-3.70
2018-02-23T04:43:52.986Z,-3.70
2018-02-23T04:46:21.250Z,-3.50
2018-02-23T04:48:48.730Z,-3.50
2018-02-23T04:51:16.986Z,-3.40
2018-02-23T04:53:44.559Z,-3.40
2018-02-23T04:56:12.812Z,-3.30
2018-02-23T04:58:40.498Z,-3.30
2018-02-23T05:01:08.760Z,-3.20
2018-02-23T05:03:36.254Z,-3.20
2018-02-23T05:06:03.785Z,-3.20
2018-02-23T05:08:31.360Z,-3.20
2018-02-23T05:10:59.733Z,-3.10
2018-02-23T05:13:27.984Z,-3.10
2018-02-23T05:15:55.486Z,-3.10
2018-02-23T05:18:22.969Z,-3.10
2018-02-23T05:20:50.451Z,-3.10
2018-02-23T05:23:17.947Z,-3.10
2018-02-23T05:25:46.223Z,-3.10
2018-02-23T05:28:14.499Z,-3.20
2018-02-23T05:30:42.762Z,-3.20
2018-02-23T05:33:10.279Z,-3.20
2018-02-23T05:35:37.767Z,-3.30
2018-02-23T05:38:06.770Z,-3.60
2018-02-23T05:40:34.254Z,-3.60
2018-02-23T05:43:02.506Z,-3.90
2018-02-23T05:45:30.774Z,-4.00
2018-02-23T05:47:58.268Z,-4.10
2018-02-23T05:50:25.816Z,-4.10
2018-02-23T05:52:54.091Z,-4.30
2018-02-23T05:55:22.359Z,-4.40
2018-02-23T05:57:49.844Z,-4.40
2018-02-23T06:00:17.378Z,-4.40
2018-02-23T06:02:45.627Z,-4.50
2018-02-23T06:05:13.114Z,-4.50
2018-02-23T06:07:41.428Z,-4.60
2018-02-23T06:10:08.913Z,-4.60
2018-02-23T06:12:36.413Z,-4.60
2018-02-23T06:15:04.682Z,-4.70
2018-02-23T06:17:37.913Z,-4.70
2018-02-23T06:20:08.411Z,-4.70
2018-02-23T06:22:36.665Z,-4.70
2018-02-23T06:25:04.279Z,-4.80
2018-02-23T06:27:31.788Z,-4.70
2018-02-23T06:29:59.275Z,-4.70
2018-02-23T06:32:26.783Z,-4.60
2018-02-23T06:34:54.284Z,-4.60
2018-02-23T06:37:22.535Z,-4.40
2018-02-23T06:39:50.030Z,-4.50
2018-02-23T06:42:17.532Z,-4.40
2018-02-23T06:44:45.032Z,-4.30
2018-02-23T06:47:13.293Z,-4.20
2018-02-23T06:49:40.790Z,-4.20
2018-02-23T06:52:08.326Z,-4.10
2018-02-23T06:54:36.570Z,-4.00
2018-02-23T06:57:04.066Z,-4.00
2018-02-23T06:59:32.322Z,-3.80
2018-02-23T07:01:59.808Z,-3.90
2018-02-23T07:04:28.178Z,-3.70
2018-02-23T07:06:56.431Z,-3.70
2018-02-23T07:09:23.920Z,-3.70
2018-02-23T07:11:52.181Z,-3.50
2018-02-23T07:14:20.439Z,-3.40
2018-02-23T07:16:47.921Z,-3.40
2018-02-23T07:19:16.195Z,-3.20
2018-02-23T07:21:44.445Z,-3.20
2018-02-23T07:24:12.069Z,-3.20
2018-02-23T07:26:39.583Z,-3.10
2018-02-23T07:29:07.155Z,-3.00
2018-02-23T07:31:35.429Z,-2.70
2018-02-23T07:34:03.695Z,-2.40
2018-02-23T07:36:31.275Z,-2.40
2018-02-23T07:38:59.527Z,-2.10
2018-02-23T07:41:27.015Z,-2.10
2018-02-23T07:43:55.259Z,-1.90
2018-02-23T07:46:22.839Z,-2.00
2018-02-23T07:48:51.099Z,-1.70
2018-02-23T07:51:18.583Z,-1.70
2018-02-23T07:53:46.830Z,-1.30
2018-02-23T07:56:14.322Z,-1.30
2018-02-23T07:58:42.574Z,-1.00
2018-02-23T08:01:10.050Z,-1.00
2018-02-23T08:03:38.318Z,-0.90
2018-02-23T08:06:06.568Z,-1.00
2018-02-23T08:08:34.157Z,-1.00
2018-02-23T08:11:02.410Z,-1.00
2018-02-23T08:13:29.898Z,-1.00
2018-02-23T08:15:58.148Z,-1.00
2018-02-23T08:18:25.640Z,-1.00
2018-02-23T08:20:53.117Z,-0.90
2018-02-23T08:23:20.597Z,-0.90
2018-02-23T08:25:48.211Z,-0.80
2018-02-23T08:28:16.461Z,-0.80
2018-02-23T08:30:44.701Z,-0.70
2018-02-23T08:33:12.207Z,-0.80
2018-02-23T08:35:40.476Z,-0.80
2018-02-23T08:38:07.964Z,-0.80
2018-02-23T08:40:35.610Z,-0.70
2018-02-23T08:43:03.883Z,-0.50
2018-02-23T08:45:32.139Z,-0.40
2018-02-23T08:47:59.634Z,-0.40
2018-02-23T08:50:27.874Z,-0.20
2018-02-23T08:52:55.362Z,-0.20
2018-02-23T08:55:23.618Z,0.10
2018-02-23T08:57:51.115Z,0.10
2018-02-23T09:00:18.598Z,0.30
2018-02-23T09:02:46.089Z,0.40
2018-02-23T09:05:15.103Z,0.50
2018-02-23T09:07:43.378Z,0.60
2018-02-23T09:10:11.656Z,0.60
2018-02-23T09:12:39.900Z,0.60
2018-02-23T09:15:07.381Z,0.60
2018-02-23T09:17:34.879Z,0.70
2018-02-23T09:20:02.368Z,1.00
2018-02-23T09:22:30.069Z,1.10
2018-02-23T09:24:58.342Z,1.40
2018-02-23T09:27:26.583Z,1.40
2018-02-23T09:29:54.067Z,1.40
2018-02-23T09:32:34.309Z,1.60
2018-02-23T09:35:01.790Z,1.60
2018-02-23T09:37:30.033Z,1.80
2018-02-23T09:39:57.519Z,1.80
2018-02-23T09:42:25.085Z,2.00
2018-02-23T09:44:53.372Z,2.20
2018-02-23T09:47:21.631Z,2.30
2018-02-23T09:49:49.208Z,2.30
2018-02-23T09:52:17.468Z,2.70
2018-02-23T09:54:44.968Z,2.70
2018-02-23T09:57:12.475Z,2.70
2018-02-23T09:59:39.962Z,2.90
2018-02-23T10:02:08.222Z,2.90
2018-02-23T10:04:35.786Z,2.90
2018-02-23T10:07:04.038Z,3.20
2018-02-23T10:09:31.626Z,3.20
2018-02-23T10:11:59.900Z,3.30
2018-02-23T10:14:28.144Z,3.40
2018-02-23T10:16:55.740Z,3.40
2018-02-23T10:19:23.981Z,3.80
2018-02-23T10:21:51.471Z,3.80
2018-02-23T10:24:19.725Z,4.30
2018-02-23T10:26:47.218Z,4.30
2018-02-23T10:29:15.463Z,4.50
2018-02-23T10:31:43.051Z,4.50
2018-02-23T10:34:11.297Z,5.20
2018-02-23T10:36:39.565Z,5.70
2018-02-23T10:39:07.063Z,5.70
2018-02-23T10:41:35.306Z,7.00
2018-02-23T10:44:03.390Z,7.00
2018-02-23T10:46:30.888Z,7.90
2018-02-23T10:48:58.366Z,8.80
2018-02-23T10:51:25.847Z,9.60
2018-02-23T10:53:53.441Z,9.70
2018-02-23T10:56:21.902Z,10.90
2018-02-23T10:58:50.898Z,10.70
2018-02-23T11:01:18.458Z,10.70
2018-02-23T11:03:46.034Z,10.80
2018-02-23T11:06:14.318Z,11.10
2018-02-23T11:08:42.583Z,11.20
2018-02-23T11:11:10.830Z,12.10
2018-02-23T11:13:38.313Z,12.00
2018-02-23T11:16:06.589Z,13.20
2018-02-23T11:18:34.890Z,12.90
2018-02-23T11:21:02.426Z,12.80
2018-02-23T11:23:29.915Z,13.70
2018-02-23T11:25:57.408Z,13.60
2018-02-23T11:28:24.890Z,14.40
2018-02-23T11:30:52.474Z,14.10
2018-02-23T11:33:20.723Z,16.30
2018-02-23T11:35:48.211Z,16.30
2018-02-23T11:38:16.478Z,17.80
2018-02-23T11:40:43.963Z,17.80
2018-02-23T11:43:11.447Z,17.00
2018-02-23T11:45:38.954Z,18.20
2018-02-23T11:48:07.203Z,18.20
2018-02-23T11:50:34.687Z,18.10
2018-02-23T11:53:02.954Z,18.90
2018-02-23T11:55:30.630Z,18.90
2018-02-23T11:58:04.634Z,19.50
2018-02-23T12:00:32.891Z,20.70
2018-02-23T12:03:00.378Z,20.60
2018-02-23T12:05:28.650Z,22.50
2018-02-23T12:07:56.138Z,22.40
2018-02-23T12:10:23.621Z,20.90
2018-02-23T12:12:51.130Z,19.40
2018-02-23T12:15:19.383Z,20.70
2018-02-23T12:17:46.865Z,20.70
2018-02-23T12:20:15.129Z,21.90
2018-02-23T12:22:42.699Z,21.90
2018-02-23T12:25:10.979Z,23.20
2018-02-23T12:27:39.261Z,22.90
2018-02-23T12:30:06.755Z,22.90
2018-02-23T12:32:34.304Z,22.70
2018-02-23T12:35:01.871Z,22.00
2018-02-23T12:37:30.315Z,22.90
2018-02-23T12:39:58.591Z,22.70
2018-02-23T12:42:26.854Z,22.70
2018-02-23T12:44:54.336Z,22.60
2018-02-23T12:47:22.844Z,22.60
2018-02-23T12:49:50.344Z,22.60
2018-02-23T12:52:17.832Z,23.50
2018-02-23T12:54:46.098Z,23.00
2018-02-23T12:57:14.358Z,22.60
2018-02-23T12:59:41.905Z,22.50
2018-02-23T13:02:09.395Z,23.00
2018-02-23T13:04:37.658Z,23.10
2018-02-23T13:07:05.230Z,23.10
2018-02-23T13:09:33.478Z,23.20
2018-02-23T13:12:01.073Z,23.20
2018-02-23T13:14:34.942Z,21.60
2018-02-23T13:17:02.445Z,21.60
